sensor_id;sensor_type;location;lat;lon;timestamp;pressure;altitude;pressure_sealevel;temperature;humidity
6216;BME280;3141;49.234;9.326;2023-03-25T00:00:22;98981.00;;;12.46;81.73
6216;BME280;3141;49.234;9.326;2023-03-25T00:01:09;98982.28;;;12.50;81.82
6216;BME280;3141;49.234;9.326;2023-03-25T00:01:55;98990.16;;;12.58;81.67
6216;BME280;3141;49.234;9.326;2023-03-25T00:02:37;98985.66;;;12.58;80.71
6216;BME280;3141;49.234;9.326;2023-03-25T00:03:19;98982.94;;;12.52;81.44
6216;BME280;3141;49.234;9.326;2023-03-25T00:04:05;98989.59;;;12.48;81.50
6216;BME280;3141;49.234;9.326;2023-03-25T00:04:51;98986.41;;;12.38;80.85
6216;BME280;3141;49.234;9.326;2023-03-25T00:05:38;98981.75;;;12.40;79.82
6216;BME280;3141;49.234;9.326;2023-03-25T00:06:20;98983.38;;;12.41;79.45
6216;BME280;3141;49.234;9.326;2023-03-25T00:07:03;98974.41;;;12.56;79.64
6216;BME280;3141;49.234;9.326;2023-03-25T00:07:48;98984.28;;;12.48;78.84
6216;BME280;3141;49.234;9.326;2023-03-25T00:08:30;98976.00;;;12.36;78.92
6216;BME280;3141;49.234;9.326;2023-03-25T00:09:13;98980.66;;;12.49;78.77
6216;BME280;3141;49.234;9.326;2023-03-25T00:09:55;98979.25;;;12.53;79.02
6216;BME280;3141;49.234;9.326;2023-03-25T00:10:38;98977.00;;;12.35;78.01
6216;BME280;3141;49.234;9.326;2023-03-25T00:11:20;98975.09;;;12.44;78.73
6216;BME280;3141;49.234;9.326;2023-03-25T00:12:02;98977.53;;;12.45;79.43
6216;BME280;3141;49.234;9.326;2023-03-25T00:12:45;98977.53;;;12.45;78.90
6216;BME280;3141;49.234;9.326;2023-03-25T00:13:27;98979.09;;;12.40;78.61
6216;BME280;3141;49.234;9.326;2023-03-25T00:14:12;98983.19;;;12.57;79.24
6216;BME280;3141;49.234;9.326;2023-03-25T00:14:58;98976.44;;;12.40;78.39
6216;BME280;3141;49.234;9.326;2023-03-25T00:15:43;98974.81;;;12.39;78.80
6216;BME280;3141;49.234;9.326;2023-03-25T00:16:28;98971.16;;;12.40;79.16
6216;BME280;3141;49.234;9.326;2023-03-25T00:17:10;98973.53;;;12.35;78.39
6216;BME280;3141;49.234;9.326;2023-03-25T00:17:54;98972.97;;;12.39;78.07
6216;BME280;3141;49.234;9.326;2023-03-25T00:18:37;98972.06;;;12.47;78.31
6216;BME280;3141;49.234;9.326;2023-03-25T00:19:19;98968.03;;;12.36;78.17
6216;BME280;3141;49.234;9.326;2023-03-25T00:20:06;98967.47;;;12.41;78.00
6216;BME280;3141;49.234;9.326;2023-03-25T00:20:51;98973.69;;;12.62;77.86
6216;BME280;3141;49.234;9.326;2023-03-25T00:21:34;98966.56;;;12.63;77.39
6216;BME280;3141;49.234;9.326;2023-03-25T00:22:17;98975.16;;;12.50;77.65
6216;BME280;3141;49.234;9.326;2023-03-25T00:22:59;98962.56;;;12.52;76.66
6216;BME280;3141;49.234;9.326;2023-03-25T00:23:42;98967.59;;;12.33;78.05
6216;BME280;3141;49.234;9.326;2023-03-25T00:24:24;98960.81;;;12.45;77.47
6216;BME280;3141;49.234;9.326;2023-03-25T00:25:12;98973.16;;;12.38;78.09
6216;BME280;3141;49.234;9.326;2023-03-25T00:26:00;98974.19;;;12.37;77.42
6216;BME280;3141;49.234;9.326;2023-03-25T00:26:43;98969.13;;;12.27;76.95
6216;BME280;3141;49.234;9.326;2023-03-25T00:27:27;98968.38;;;12.48;77.64
6216;BME280;3141;49.234;9.326;2023-03-25T00:28:14;98968.50;;;12.25;77.90
6216;BME280;3141;49.234;9.326;2023-03-25T00:28:57;98973.91;;;12.32;77.08
6216;BME280;3141;49.234;9.326;2023-03-25T00:29:40;98978.28;;;12.39;77.09
6216;BME280;3141;49.234;9.326;2023-03-25T00:30:25;98973.69;;;12.62;76.91
6216;BME280;3141;49.234;9.326;2023-03-25T00:31:11;98978.28;;;12.54;76.95
6216;BME280;3141;49.234;9.326;2023-03-25T00:31:54;98979.25;;;12.53;76.82
6216;BME280;3141;49.234;9.326;2023-03-25T00:32:36;98974.72;;;12.47;76.30
6216;BME280;3141;49.234;9.326;2023-03-25T00:33:18;98982.75;;;12.53;76.26
6216;BME280;3141;49.234;9.326;2023-03-25T00:34:03;98991.97;;;12.57;76.38
6216;BME280;3141;49.234;9.326;2023-03-25T00:34:46;98982.03;;;12.45;76.00
6216;BME280;3141;49.234;9.326;2023-03-25T00:35:28;98974.34;;;12.50;75.60
6216;BME280;3141;49.234;9.326;2023-03-25T00:36:12;98977.34;;;12.47;75.55
6216;BME280;3141;49.234;9.326;2023-03-25T00:36:55;98978.22;;;12.68;75.62
6216;BME280;3141;49.234;9.326;2023-03-25T00:37:37;98982.56;;;12.55;75.39
6216;BME280;3141;49.234;9.326;2023-03-25T00:38:20;98983.25;;;12.63;75.59
6216;BME280;3141;49.234;9.326;2023-03-25T00:39:03;98977.63;;;12.66;75.46
6216;BME280;3141;49.234;9.326;2023-03-25T00:39:46;98981.72;;;12.69;75.34
6216;BME280;3141;49.234;9.326;2023-03-25T00:40:30;98983.44;;;12.62;74.87
6216;BME280;3141;49.234;9.326;2023-03-25T00:42:06;98983.63;;;12.75;74.87
6216;BME280;3141;49.234;9.326;2023-03-25T00:42:52;98984.88;;;12.79;74.20
6216;BME280;3141;49.234;9.326;2023-03-25T00:43:34;98987.78;;;12.84;74.23
6216;BME280;3141;49.234;9.326;2023-03-25T00:44:17;98990.72;;;12.89;74.02
6216;BME280;3141;49.234;9.326;2023-03-25T00:44:59;98979.16;;;12.61;74.01
6216;BME280;3141;49.234;9.326;2023-03-25T00:45:41;98979.13;;;12.75;74.54
6216;BME280;3141;49.234;9.326;2023-03-25T00:46:26;98974.72;;;12.82;74.62
6216;BME280;3141;49.234;9.326;2023-03-25T00:47:08;98973.69;;;12.62;74.84
6216;BME280;3141;49.234;9.326;2023-03-25T00:47:53;98976.03;;;12.72;74.55
6216;BME280;3141;49.234;9.326;2023-03-25T00:48:35;98977.31;;;12.76;74.34
6216;BME280;3141;49.234;9.326;2023-03-25T00:49:19;98978.22;;;12.68;74.57
6216;BME280;3141;49.234;9.326;2023-03-25T00:50:06;98980.72;;;12.70;74.02
6216;BME280;3141;49.234;9.326;2023-03-25T00:50:48;98972.22;;;12.60;74.30
6216;BME280;3141;49.234;9.326;2023-03-25T00:51:31;98977.44;;;12.68;74.15
6216;BME280;3141;49.234;9.326;2023-03-25T00:52:14;98981.06;;;12.67;74.34
6216;BME280;3141;49.234;9.326;2023-03-25T00:52:57;98975.25;;;12.57;73.99
6216;BME280;3141;49.234;9.326;2023-03-25T00:53:39;98981.66;;;12.48;73.74
6216;BME280;3141;49.234;9.326;2023-03-25T00:54:22;98977.31;;;12.61;73.91
6216;BME280;3141;49.234;9.326;2023-03-25T00:55:06;98977.50;;;12.60;73.84
6216;BME280;3141;49.234;9.326;2023-03-25T00:55:49;98978.66;;;12.51;74.14
6216;BME280;3141;49.234;9.326;2023-03-25T00:56:32;98977.63;;;12.52;73.95
6216;BME280;3141;49.234;9.326;2023-03-25T00:57:14;98981.66;;;12.19;74.64
6216;BME280;3141;49.234;9.326;2023-03-25T00:57:58;98981.94;;;12.24;74.83
6216;BME280;3141;49.234;9.326;2023-03-25T00:58:40;98974.63;;;12.26;74.58
6216;BME280;3141;49.234;9.326;2023-03-25T00:59:23;98978.38;;;12.17;74.71
6216;BME280;3141;49.234;9.326;2023-03-25T01:00:09;98965.31;;;12.15;75.13
6216;BME280;3141;49.234;9.326;2023-03-25T01:00:52;98973.53;;;12.35;74.36
6216;BME280;3141;49.234;9.326;2023-03-25T01:01:37;98981.94;;;12.24;74.47
6216;BME280;3141;49.234;9.326;2023-03-25T01:02:22;98972.50;;;12.36;74.46
6216;BME280;3141;49.234;9.326;2023-03-25T01:03:04;98982.78;;;12.39;74.54
6216;BME280;3141;49.234;9.326;2023-03-25T01:03:46;98979.19;;;12.17;74.18
6216;BME280;3141;49.234;9.326;2023-03-25T01:04:30;98977.28;;;12.26;74.32
6216;BME280;3141;49.234;9.326;2023-03-25T01:05:15;98982.84;;;12.31;74.64
6216;BME280;3141;49.234;9.326;2023-03-25T01:06:16;98977.66;;;12.23;74.63
6216;BME280;3141;49.234;9.326;2023-03-25T01:06:58;98980.13;;;12.39;74.19
6216;BME280;3141;49.234;9.326;2023-03-25T01:07:42;98978.56;;;12.30;74.38
6216;BME280;3141;49.234;9.326;2023-03-25T01:08:25;98978.09;;;12.26;74.73
6216;BME280;3141;49.234;9.326;2023-03-25T01:09:12;98976.38;;;12.19;74.26
6216;BME280;3141;49.234;9.326;2023-03-25T01:09:55;98985.03;;;12.27;75.11
6216;BME280;3141;49.234;9.326;2023-03-25T01:10:38;98978.84;;;12.35;74.48
6216;BME280;3141;49.234;9.326;2023-03-25T01:11:24;98976.56;;;12.32;74.30
6216;BME280;3141;49.234;9.326;2023-03-25T01:12:07;98970.69;;;12.36;73.75
6216;BME280;3141;49.234;9.326;2023-03-25T01:12:49;98970.13;;;12.41;74.36
6216;BME280;3141;49.234;9.326;2023-03-25T01:13:31;98980.91;;;12.39;73.99
6216;BME280;3141;49.234;9.326;2023-03-25T01:14:17;98972.88;;;12.47;74.47
6216;BME280;3141;49.234;9.326;2023-03-25T01:14:59;98967.84;;;12.52;74.30
6216;BME280;3141;49.234;9.326;2023-03-25T01:15:42;98964.63;;;12.57;74.07
6216;BME280;3141;49.234;9.326;2023-03-25T01:16:25;98962.56;;;12.52;74.26
6216;BME280;3141;49.234;9.326;2023-03-25T01:17:07;98956.41;;;12.37;74.42
6216;BME280;3141;49.234;9.326;2023-03-25T01:17:50;98966.75;;;12.47;74.41
6216;BME280;3141;49.234;9.326;2023-03-25T01:18:32;98961.56;;;12.39;74.33
6216;BME280;3141;49.234;9.326;2023-03-25T01:19:18;98953.63;;;12.24;73.93
6216;BME280;3141;49.234;9.326;2023-03-25T01:20:01;98954.59;;;12.38;73.76
6216;BME280;3141;49.234;9.326;2023-03-25T01:20:44;98952.97;;;12.37;73.57
6216;BME280;3141;49.234;9.326;2023-03-25T01:21:26;98951.56;;;12.41;73.62
6216;BME280;3141;49.234;9.326;2023-03-25T01:22:08;98946.28;;;12.41;73.59
6216;BME280;3141;49.234;9.326;2023-03-25T01:22:51;98947.63;;;12.51;73.38
6216;BME280;3141;49.234;9.326;2023-03-25T01:23:34;98946.91;;;12.43;72.74
6216;BME280;3141;49.234;9.326;2023-03-25T01:24:16;98946.72;;;12.59;72.82
6216;BME280;3141;49.234;9.326;2023-03-25T01:24:59;98945.34;;;12.48;73.15
6216;BME280;3141;49.234;9.326;2023-03-25T01:25:42;98945.09;;;12.58;73.12
6216;BME280;3141;49.234;9.326;2023-03-25T01:26:24;98940.59;;;12.58;72.47
6216;BME280;3141;49.234;9.326;2023-03-25T01:27:27;98944.97;;;12.51;73.44
6216;BME280;3141;49.234;9.326;2023-03-25T01:28:18;98942.38;;;12.37;73.93
6216;BME280;3141;49.234;9.326;2023-03-25T01:29:10;98944.00;;;12.38;73.16
6216;BME280;3141;49.234;9.326;2023-03-25T01:30:03;98945.09;;;12.29;73.74
6216;BME280;3141;49.234;9.326;2023-03-25T01:30:45;98942.72;;;12.34;73.21
6216;BME280;3141;49.234;9.326;2023-03-25T01:31:28;98942.81;;;12.40;73.24
6216;BME280;3141;49.234;9.326;2023-03-25T01:32:25;98939.59;;;12.45;73.41
6216;BME280;3141;49.234;9.326;2023-03-25T01:33:09;98942.28;;;12.30;72.94
6216;BME280;3141;49.234;9.326;2023-03-25T01:33:51;98943.63;;;12.41;73.41
6216;BME280;3141;49.234;9.326;2023-03-25T01:34:34;98944.78;;;12.53;73.07
6216;BME280;3141;49.234;9.326;2023-03-25T01:35:19;98938.44;;;12.47;73.14
6216;BME280;3141;49.234;9.326;2023-03-25T01:36:02;98937.16;;;12.43;72.93
6216;BME280;3141;49.234;9.326;2023-03-25T01:36:44;98939.59;;;12.45;72.72
6216;BME280;3141;49.234;9.326;2023-03-25T01:37:27;98938.44;;;12.47;72.87
6216;BME280;3141;49.234;9.326;2023-03-25T01:38:10;98940.78;;;12.57;72.61
6216;BME280;3141;49.234;9.326;2023-03-25T01:38:52;98936.22;;;12.51;72.60
6216;BME280;3141;49.234;9.326;2023-03-25T01:39:35;98938.88;;;12.51;72.67
6216;BME280;3141;49.234;9.326;2023-03-25T01:40:20;98934.03;;;12.54;72.70
6216;BME280;3141;49.234;9.326;2023-03-25T01:41:02;98943.19;;;12.23;73.01
6216;BME280;3141;49.234;9.326;2023-03-25T01:41:47;98939.34;;;12.25;73.22
6216;BME280;3141;49.234;9.326;2023-03-25T01:42:30;98938.16;;;12.28;73.17
6216;BME280;3141;49.234;9.326;2023-03-25T01:43:12;98943.63;;;12.41;73.25
6216;BME280;3141;49.234;9.326;2023-03-25T01:45:19;98942.69;;;12.63;72.92
6216;BME280;3141;49.234;9.326;2023-03-25T01:46:02;98941.47;;;12.65;72.40
6216;BME280;3141;49.234;9.326;2023-03-25T01:46:44;98937.88;;;12.37;73.23
6216;BME280;3141;49.234;9.326;2023-03-25T01:47:30;98942.72;;;12.34;73.49
6216;BME280;3141;49.234;9.326;2023-03-25T01:49:08;98947.44;;;12.53;73.24
6216;BME280;3141;49.234;9.326;2023-03-25T01:49:51;98935.41;;;12.50;73.45
6216;BME280;3141;49.234;9.326;2023-03-25T01:50:41;98934.31;;;12.45;73.64
6216;BME280;3141;49.234;9.326;2023-03-25T01:51:29;98940.13;;;12.55;73.38
6216;BME280;3141;49.234;9.326;2023-03-25T01:52:23;98938.19;;;12.63;72.74
6216;BME280;3141;49.234;9.326;2023-03-25T01:53:07;98935.25;;;12.73;72.55
6216;BME280;3141;49.234;9.326;2023-03-25T01:53:50;98932.22;;;12.76;72.24
6216;BME280;3141;49.234;9.326;2023-03-25T01:54:34;98926.84;;;12.69;72.14
6216;BME280;3141;49.234;9.326;2023-03-25T01:55:19;98920.34;;;12.72;72.08
6216;BME280;3141;49.234;9.326;2023-03-25T01:56:05;98924.66;;;12.73;72.62
6216;BME280;3141;49.234;9.326;2023-03-25T01:56:48;98921.47;;;12.63;72.58
6216;BME280;3141;49.234;9.326;2023-03-25T01:57:31;98919.63;;;12.63;72.77
6216;BME280;3141;49.234;9.326;2023-03-25T01:58:16;98913.28;;;12.58;73.03
6216;BME280;3141;49.234;9.326;2023-03-25T01:59:04;98917.50;;;12.38;73.37
6216;BME280;3141;49.234;9.326;2023-03-25T01:59:49;98914.41;;;12.34;73.67
6216;BME280;3141;49.234;9.326;2023-03-25T02:00:32;98924.84;;;12.21;73.44
6216;BME280;3141;49.234;9.326;2023-03-25T02:01:16;98911.41;;;12.23;73.41
6216;BME280;3141;49.234;9.326;2023-03-25T02:02:05;98915.41;;;12.19;73.11
6216;BME280;3141;49.234;9.326;2023-03-25T02:02:50;98912.13;;;12.31;73.46
6216;BME280;3141;49.234;9.326;2023-03-25T02:03:33;98916.22;;;12.34;73.25
6216;BME280;3141;49.234;9.326;2023-03-25T02:04:26;98915.75;;;12.45;72.60
6216;BME280;3141;49.234;9.326;2023-03-25T02:05:22;98918.03;;;12.48;73.00
6216;BME280;3141;49.234;9.326;2023-03-25T02:06:09;98921.69;;;12.47;72.70
6216;BME280;3141;49.234;9.326;2023-03-25T02:06:53;98908.56;;;12.39;72.33
6216;BME280;3141;49.234;9.326;2023-03-25T02:07:39;98913.09;;;12.45;71.59
6216;BME280;3141;49.234;9.326;2023-03-25T02:08:24;98908.81;;;12.44;72.01
6216;BME280;3141;49.234;9.326;2023-03-25T02:09:07;98914.00;;;12.52;71.61
6216;BME280;3141;49.234;9.326;2023-03-25T02:09:50;98907.34;;;12.41;71.72
6216;BME280;3141;49.234;9.326;2023-03-25T02:10:32;98911.03;;;12.40;71.83
6216;BME280;3141;49.234;9.326;2023-03-25T02:11:15;98906.38;;;12.28;71.50
6216;BME280;3141;49.234;9.326;2023-03-25T02:11:58;98910.63;;;12.43;72.02
6216;BME280;3141;49.234;9.326;2023-03-25T02:12:40;98903.53;;;12.44;72.03
6216;BME280;3141;49.234;9.326;2023-03-25T02:13:24;98908.72;;;12.37;71.74
6216;BME280;3141;49.234;9.326;2023-03-25T02:14:18;98907.22;;;12.49;71.44
6216;BME280;3141;49.234;9.326;2023-03-25T02:15:04;98909.88;;;12.49;70.75
6216;BME280;3141;49.234;9.326;2023-03-25T02:17:44;98900.47;;;12.47;71.23
6216;BME280;3141;49.234;9.326;2023-03-25T02:24:26;98905.94;;;12.60;70.94
6216;BME280;3141;49.234;9.326;2023-03-25T02:27:54;98909.91;;;12.70;71.67
6216;BME280;3141;49.234;9.326;2023-03-25T02:28:38;98914.41;;;12.70;72.93
6216;BME280;3141;49.234;9.326;2023-03-25T02:29:49;98919.97;;;12.75;73.07
6216;BME280;3141;49.234;9.326;2023-03-25T02:32:05;98938.31;;;12.55;74.89
6216;BME280;3141;49.234;9.326;2023-03-25T02:35:46;98956.72;;;11.99;80.67
6216;BME280;3141;49.234;9.326;2023-03-25T02:38:23;98971.38;;;11.35;82.22
6216;BME280;3141;49.234;9.326;2023-03-25T02:40:06;98972.19;;;11.35;83.22
6216;BME280;3141;49.234;9.326;2023-03-25T02:40:46;98982.34;;;11.46;82.69
6216;BME280;3141;49.234;9.326;2023-03-25T02:43:30;98970.59;;;11.49;81.78
6216;BME280;3141;49.234;9.326;2023-03-25T02:44:24;98948.50;;;11.56;80.67
6216;BME280;3141;49.234;9.326;2023-03-25T02:46:10;98935.34;;;11.48;81.34
6216;BME280;3141;49.234;9.326;2023-03-25T02:46:22;98922.94;;;11.12;79.83
6216;BME280;3141;49.234;9.326;2023-03-25T02:47:11;98925.81;;;11.25;80.17
6216;BME280;3141;49.234;9.326;2023-03-25T02:47:57;98928.78;;;11.22;79.78
6216;BME280;3141;49.234;9.326;2023-03-25T02:49:12;98940.25;;;11.37;80.11
6216;BME280;3141;49.234;9.326;2023-03-25T02:50:02;98941.34;;;11.42;79.92
6216;BME280;3141;49.234;9.326;2023-03-25T02:50:54;98956.44;;;11.42;79.80
6216;BME280;3141;49.234;9.326;2023-03-25T02:51:45;98959.59;;;11.37;79.80
6216;BME280;3141;49.234;9.326;2023-03-25T02:52:34;98959.06;;;11.42;80.01
6216;BME280;3141;49.234;9.326;2023-03-25T02:53:29;98964.66;;;11.24;81.13
6216;BME280;3141;49.234;9.326;2023-03-25T02:54:16;98960.91;;;11.19;81.11
6216;BME280;3141;49.234;9.326;2023-03-25T02:55:01;98958.06;;;11.20;80.51
6216;BME280;3141;49.234;9.326;2023-03-25T02:55:46;98963.53;;;11.19;80.65
6216;BME280;3141;49.234;9.326;2023-03-25T02:56:31;98962.56;;;11.20;80.09
6216;BME280;3141;49.234;9.326;2023-03-25T02:57:16;98962.56;;;11.20;80.65
6216;BME280;3141;49.234;9.326;2023-03-25T02:58:04;98957.19;;;11.05;80.39
6216;BME280;3141;49.234;9.326;2023-03-25T02:58:48;98969.50;;;11.21;80.51
6216;BME280;3141;49.234;9.326;2023-03-25T02:59:33;98966.72;;;11.14;80.49
6216;BME280;3141;49.234;9.326;2023-03-25T03:00:25;98968.66;;;11.20;80.83
6216;BME280;3141;49.234;9.326;2023-03-25T03:01:08;98966.44;;;11.32;80.20
6216;BME280;3141;49.234;9.326;2023-03-25T03:01:55;98974.19;;;11.33;80.31
6216;BME280;3141;49.234;9.326;2023-03-25T03:02:42;98965.50;;;11.02;80.41
6216;BME280;3141;49.234;9.326;2023-03-25T03:03:26;98967.53;;;11.15;79.91
6216;BME280;3141;49.234;9.326;2023-03-25T03:04:09;98965.81;;;10.99;80.10
6216;BME280;3141;49.234;9.326;2023-03-25T03:04:54;98973.66;;;11.15;80.45
6216;BME280;3141;49.234;9.326;2023-03-25T03:05:40;98971.94;;;11.22;80.02
6216;BME280;3141;49.234;9.326;2023-03-25T03:06:24;98968.84;;;11.19;80.27
6216;BME280;3141;49.234;9.326;2023-03-25T03:07:08;98959.84;;;11.28;79.27
6216;BME280;3141;49.234;9.326;2023-03-25T03:09:10;98947.38;;;10.91;79.78
6216;BME280;3141;49.234;9.326;2023-03-25T03:10:23;98944.56;;;11.15;80.19
6216;BME280;3141;49.234;9.326;2023-03-25T03:11:28;98944.66;;;11.22;79.65
6216;BME280;3141;49.234;9.326;2023-03-25T03:12:34;98951.25;;;11.26;79.29
6216;BME280;3141;49.234;9.326;2023-03-25T03:14:40;98947.97;;;11.24;79.77
6216;BME280;3141;49.234;9.326;2023-03-25T03:15:50;98955.50;;;11.12;79.88
6216;BME280;3141;49.234;9.326;2023-03-25T03:16:46;98945.84;;;11.19;79.34
6216;BME280;3141;49.234;9.326;2023-03-25T03:17:41;98951.84;;;11.13;79.52
6216;BME280;3141;49.234;9.326;2023-03-25T03:18:43;98950.13;;;11.20;79.92
6216;BME280;3141;49.234;9.326;2023-03-25T03:19:45;98950.28;;;11.04;79.72
6216;BME280;3141;49.234;9.326;2023-03-25T03:20:33;98948.06;;;11.30;79.22
6216;BME280;3141;49.234;9.326;2023-03-25T03:22:32;98949.16;;;11.21;80.18
6216;BME280;3141;49.234;9.326;2023-03-25T03:23:28;98944.94;;;11.49;77.90
6216;BME280;3141;49.234;9.326;2023-03-25T03:24:28;98941.94;;;11.52;78.39
6216;BME280;3141;49.234;9.326;2023-03-25T03:25:34;98938.56;;;11.44;78.11
6216;BME280;3141;49.234;9.326;2023-03-25T03:26:41;98940.59;;;11.34;77.96
6216;BME280;3141;49.234;9.326;2023-03-25T03:27:33;98941.78;;;11.31;78.30
6216;BME280;3141;49.234;9.326;2023-03-25T03:28:45;98937.19;;;11.25;78.03
6216;BME280;3141;49.234;9.326;2023-03-25T03:29:51;98940.03;;;11.24;78.65
6216;BME280;3141;49.234;9.326;2023-03-25T03:30:47;98940.69;;;11.26;78.13
6216;BME280;3141;49.234;9.326;2023-03-25T03:33:02;98950.44;;;11.25;78.27
6216;BME280;3141;49.234;9.326;2023-03-25T03:34:02;98945.59;;;11.29;78.15
6216;BME280;3141;49.234;9.326;2023-03-25T03:34:55;98951.16;;;11.19;77.25
6216;BME280;3141;49.234;9.326;2023-03-25T03:35:52;98951.97;;;10.97;77.62
6216;BME280;3141;49.234;9.326;2023-03-25T03:36:42;98948.97;;;11.00;76.83
6216;BME280;3141;49.234;9.326;2023-03-25T03:37:30;98953.25;;;11.01;77.00
6216;BME280;3141;49.234;9.326;2023-03-25T03:38:15;98955.97;;;10.93;76.44
6216;BME280;3141;49.234;9.326;2023-03-25T03:39:17;98951.03;;;11.13;76.47
6216;BME280;3141;49.234;9.326;2023-03-25T03:40:04;98965.34;;;11.18;76.33
6216;BME280;3141;49.234;9.326;2023-03-25T03:40:53;98955.44;;;11.20;75.73
6216;BME280;3141;49.234;9.326;2023-03-25T03:41:40;98957.84;;;11.30;75.47
6216;BME280;3141;49.234;9.326;2023-03-25T03:42:32;98954.44;;;11.58;74.98
6216;BME280;3141;49.234;9.326;2023-03-25T03:44:13;98972.59;;;11.61;75.22
6216;BME280;3141;49.234;9.326;2023-03-25T03:45:02;98973.09;;;11.42;74.78
6216;BME280;3141;49.234;9.326;2023-03-25T03:45:51;98976.84;;;11.33;75.33
6216;BME280;3141;49.234;9.326;2023-03-25T03:47:04;98983.47;;;11.29;76.34
6216;BME280;3141;49.234;9.326;2023-03-25T03:47:52;98986.53;;;11.41;75.59
6216;BME280;3141;49.234;9.326;2023-03-25T03:48:42;98988.38;;;11.40;75.90
6216;BME280;3141;49.234;9.326;2023-03-25T03:49:28;98975.19;;;11.32;75.08
6216;BME280;3141;49.234;9.326;2023-03-25T03:50:28;98983.47;;;11.29;75.15
6216;BME280;3141;49.234;9.326;2023-03-25T03:51:18;98994.81;;;11.38;75.12
6216;BME280;3141;49.234;9.326;2023-03-25T03:52:19;98999.34;;;11.29;75.22
6216;BME280;3141;49.234;9.326;2023-03-25T03:53:10;98994.00;;;11.37;74.72
6216;BME280;3141;49.234;9.326;2023-03-25T03:54:00;98988.19;;;11.42;75.21
6216;BME280;3141;49.234;9.326;2023-03-25T03:54:50;98987.91;;;11.14;75.31
6216;BME280;3141;49.234;9.326;2023-03-25T03:55:40;98991.88;;;11.10;75.80
6216;BME280;3141;49.234;9.326;2023-03-25T03:56:28;98986.88;;;11.38;75.71
6216;BME280;3141;49.234;9.326;2023-03-25T03:57:19;98995.09;;;11.43;74.52
6216;BME280;3141;49.234;9.326;2023-03-25T03:58:11;98999.16;;;11.31;75.10
6216;BME280;3141;49.234;9.326;2023-03-25T03:58:57;99000.97;;;11.30;75.20
6216;BME280;3141;49.234;9.326;2023-03-25T04:00:49;99002.53;;;11.47;74.69
6216;BME280;3141;49.234;9.326;2023-03-25T04:01:39;99007.09;;;11.53;74.74
6216;BME280;3141;49.234;9.326;2023-03-25T04:03:23;99006.28;;;11.30;75.02
6216;BME280;3141;49.234;9.326;2023-03-25T04:04:09;99000.47;;;11.35;74.59
6216;BME280;3141;49.234;9.326;2023-03-25T04:04:52;99007.22;;;11.37;74.97
6216;BME280;3141;49.234;9.326;2023-03-25T04:05:35;99009.53;;;11.40;75.41
6216;BME280;3141;49.234;9.326;2023-03-25T04:06:39;99008.81;;;11.46;74.72
6216;BME280;3141;49.234;9.326;2023-03-25T04:07:34;99004.88;;;11.42;75.03
6216;BME280;3141;49.234;9.326;2023-03-25T04:08:32;99011.09;;;11.49;74.58
6216;BME280;3141;49.234;9.326;2023-03-25T04:09:23;99015.69;;;11.55;74.88
6216;BME280;3141;49.234;9.326;2023-03-25T04:10:17;99014.34;;;11.59;74.75
6216;BME280;3141;49.234;9.326;2023-03-25T04:11:18;99022.47;;;11.35;74.91
6216;BME280;3141;49.234;9.326;2023-03-25T04:12:16;99014.03;;;11.54;74.33
6216;BME280;3141;49.234;9.326;2023-03-25T04:13:03;99011.81;;;11.43;74.55
6216;BME280;3141;49.234;9.326;2023-03-25T04:13:48;99007.47;;;11.50;74.83
6216;BME280;3141;49.234;9.326;2023-03-25T04:14:33;99010.56;;;11.54;75.06
6216;BME280;3141;49.234;9.326;2023-03-25T04:15:15;99006.72;;;11.65;74.45
6216;BME280;3141;49.234;9.326;2023-03-25T04:15:59;99011.84;;;11.58;74.89
6216;BME280;3141;49.234;9.326;2023-03-25T04:16:41;99015.59;;;11.49;75.16
6216;BME280;3141;49.234;9.326;2023-03-25T04:17:26;99013.03;;;11.55;74.88
6216;BME280;3141;49.234;9.326;2023-03-25T04:18:11;99011.69;;;11.59;74.80
6216;BME280;3141;49.234;9.326;2023-03-25T04:18:53;99007.50;;;11.42;74.81
6216;BME280;3141;49.234;9.326;2023-03-25T04:19:36;99008.81;;;11.46;75.34
6216;BME280;3141;49.234;9.326;2023-03-25T04:20:21;99015.41;;;11.50;74.78
6216;BME280;3141;49.234;9.326;2023-03-25T04:21:10;99007.00;;;11.47;75.26
6216;BME280;3141;49.234;9.326;2023-03-25T04:21:56;99009.09;;;11.51;74.79
6216;BME280;3141;49.234;9.326;2023-03-25T04:22:38;99012.69;;;11.58;73.97
6216;BME280;3141;49.234;9.326;2023-03-25T04:23:27;99013.69;;;11.57;74.30
6216;BME280;3141;49.234;9.326;2023-03-25T04:24:13;99009.53;;;11.63;74.12
6216;BME280;3141;49.234;9.326;2023-03-25T04:24:57;99006.41;;;11.59;74.29
6216;BME280;3141;49.234;9.326;2023-03-25T04:25:42;99003.91;;;11.58;73.90
6216;BME280;3141;49.234;9.326;2023-03-25T04:26:24;99000.47;;;11.57;74.11
6216;BME280;3141;49.234;9.326;2023-03-25T04:27:08;99000.28;;;11.59;74.40
6216;BME280;3141;49.234;9.326;2023-03-25T04:27:51;99001.88;;;11.45;74.61
6216;BME280;3141;49.234;9.326;2023-03-25T04:28:34;98997.75;;;11.43;74.64
6216;BME280;3141;49.234;9.326;2023-03-25T04:29:17;98999.34;;;11.52;74.75
6216;BME280;3141;49.234;9.326;2023-03-25T04:30:03;99005.03;;;11.63;74.39
6216;BME280;3141;49.234;9.326;2023-03-25T04:30:46;99004.91;;;11.57;73.65
6216;BME280;3141;49.234;9.326;2023-03-25T04:31:36;99011.16;;;11.41;73.85
6216;BME280;3141;49.234;9.326;2023-03-25T04:32:26;98998.88;;;11.48;73.74
6216;BME280;3141;49.234;9.326;2023-03-25T04:33:12;98996.91;;;11.42;73.78
6216;BME280;3141;49.234;9.326;2023-03-25T04:33:54;99006.81;;;11.48;73.86
6216;BME280;3141;49.234;9.326;2023-03-25T04:34:39;98996.63;;;11.60;73.53
6216;BME280;3141;49.234;9.326;2023-03-25T04:35:22;98990.34;;;11.61;73.55
6216;BME280;3141;49.234;9.326;2023-03-25T04:36:07;98994.63;;;11.62;73.23
6216;BME280;3141;49.234;9.326;2023-03-25T04:36:50;98998.50;;;11.51;73.36
6216;BME280;3141;49.234;9.326;2023-03-25T04:37:32;99003.91;;;11.58;73.68
6216;BME280;3141;49.234;9.326;2023-03-25T04:38:18;98998.03;;;11.48;73.47
6216;BME280;3141;49.234;9.326;2023-03-25T04:39:00;98988.59;;;11.31;73.86
6216;BME280;3141;49.234;9.326;2023-03-25T04:39:42;98999.41;;;11.21;73.65
6216;BME280;3141;49.234;9.326;2023-03-25T04:40:25;99002.06;;;11.21;74.49
6216;BME280;3141;49.234;9.326;2023-03-25T04:41:09;98994.53;;;11.33;73.89
6216;BME280;3141;49.234;9.326;2023-03-25T04:41:51;98997.72;;;11.28;73.92
6216;BME280;3141;49.234;9.326;2023-03-25T04:42:38;99003.69;;;11.22;73.41
6216;BME280;3141;49.234;9.326;2023-03-25T04:43:23;99002.41;;;11.41;73.27
6216;BME280;3141;49.234;9.326;2023-03-25T04:44:06;98997.56;;;11.44;72.84
6216;BME280;3141;49.234;9.326;2023-03-25T04:44:51;98997.56;;;11.44;72.79
6216;BME280;3141;49.234;9.326;2023-03-25T04:45:33;99000.28;;;11.59;72.33